sensor_id;sensor_type;location;lat;lon;timestamp;pressure;altitude;pressure_sealevel;temperature;humidity
42771;BME280;28426;42.872;25.314;2024-03-02T00:00:21;96441.34;;;8.87;62.39
42771;BME280;28426;42.872;25.314;2024-03-02T00:02:57;96449.50;;;8.86;62.50
42771;BME280;28426;42.872;25.314;2024-03-02T00:05:27;96443.34;;;8.85;62.52
42771;BME280;28426;42.872;25.314;2024-03-02T00:08:01;96438.88;;;8.86;62.54
42771;BME280;28426;42.872;25.314;2024-03-02T00:10:37;96440.88;;;8.84;62.51
42771;BME280;28426;42.872;25.314;2024-03-02T00:13:09;96444.56;;;8.83;62.52
42771;BME280;28426;42.872;25.314;2024-03-02T00:15:46;96439.25;;;8.83;62.51
42771;BME280;28426;42.872;25.314;2024-03-02T00:18:25;96442.94;;;8.82;62.59
42771;BME280;28426;42.872;25.314;2024-03-02T00:20:57;96432.09;;;8.83;62.60
42771;BME280;28426;42.872;25.314;2024-03-02T00:23:29;96434.09;;;8.81;62.53
42771;BME280;28426;42.872;25.314;2024-03-02T00:26:01;96426.31;;;8.80;62.58
42771;BME280;28426;42.872;25.314;2024-03-02T00:28:33;96430.84;;;8.79;62.52
42771;BME280;28426;42.872;25.314;2024-03-02T00:31:05;96431.00;;;8.77;62.87
42771;BME280;28426;42.872;25.314;2024-03-02T00:33:41;96438.38;;;8.75;62.92
42771;BME280;28426;42.872;25.314;2024-03-02T00:36:13;96425.81;;;8.69;62.58
42771;BME280;28426;42.872;25.314;2024-03-02T00:38:46;96442.44;;;8.71;62.76
42771;BME280;28426;42.872;25.314;2024-03-02T00:41:21;96444.25;;;8.71;62.81
42771;BME280;28426;42.872;25.314;2024-03-02T00:44:03;96429.69;;;8.67;62.91
42771;BME280;28426;42.872;25.314;2024-03-02T00:46:34;96419.88;;;8.67;62.72
42771;BME280;28426;42.872;25.314;2024-03-02T00:49:20;96424.72;;;8.63;62.93
42771;BME280;28426;42.872;25.314;2024-03-02T00:51:53;96421.88;;;8.65;63.07
42771;BME280;28426;42.872;25.314;2024-03-02T00:54:25;96419.41;;;8.63;63.00
42771;BME280;28426;42.872;25.314;2024-03-02T00:56:57;96425.94;;;8.61;62.87
42771;BME280;28426;42.872;25.314;2024-03-02T00:59:27;96424.28;;;8.60;62.89
42771;BME280;28426;42.872;25.314;2024-03-02T01:01:59;96416.44;;;8.36;61.07
42771;BME280;28426;42.872;25.314;2024-03-02T01:04:32;96420.41;;;7.74;59.72
42771;BME280;28426;42.872;25.314;2024-03-02T01:07:03;96423.44;;;7.02;62.61
42771;BME280;28426;42.872;25.314;2024-03-02T01:09:34;96421.66;;;6.32;65.18
42771;BME280;28426;42.872;25.314;2024-03-02T01:12:05;96431.31;;;5.76;66.84
42771;BME280;28426;42.872;25.314;2024-03-02T01:14:36;96408.13;;;5.30;68.17
42771;BME280;28426;42.872;25.314;2024-03-02T01:17:07;96413.16;;;4.92;71.90
42771;BME280;28426;42.872;25.314;2024-03-02T01:19:41;96421.41;;;4.72;73.98
42771;BME280;28426;42.872;25.314;2024-03-02T01:22:12;96402.25;;;4.62;76.18
42771;BME280;28426;42.872;25.314;2024-03-02T01:24:43;96412.00;;;4.78;84.57
42771;BME280;28426;42.872;25.314;2024-03-02T01:27:14;96416.94;;;4.97;83.36
42771;BME280;28426;42.872;25.314;2024-03-02T01:29:44;96414.59;;;5.19;82.10
42771;BME280;28426;42.872;25.314;2024-03-02T01:32:15;96416.34;;;5.44;80.29
42771;BME280;28426;42.872;25.314;2024-03-02T01:34:46;96417.28;;;5.68;79.32
42771;BME280;28426;42.872;25.314;2024-03-02T01:37:16;96422.47;;;5.93;82.26
42771;BME280;28426;42.872;25.314;2024-03-02T01:39:47;96405.84;;;6.15;83.25
42771;BME280;28426;42.872;25.314;2024-03-02T01:42:18;96403.44;;;6.29;82.02
42771;BME280;28426;42.872;25.314;2024-03-02T01:44:48;96401.09;;;6.34;80.08
42771;BME280;28426;42.872;25.314;2024-03-02T01:47:19;96398.97;;;6.30;79.63
42771;BME280;28426;42.872;25.314;2024-03-02T01:49:52;96401.69;;;6.21;78.54
42771;BME280;28426;42.872;25.314;2024-03-02T01:52:23;96397.59;;;6.10;78.70
42771;BME280;28426;42.872;25.314;2024-03-02T01:54:53;96394.28;;;6.00;78.17
42771;BME280;28426;42.872;25.314;2024-03-02T01:57:24;96406.78;;;5.83;78.26
42771;BME280;28426;42.872;25.314;2024-03-02T01:59:55;96410.00;;;5.70;79.07
42771;BME280;28426;42.872;25.314;2024-03-02T02:02:26;96403.69;;;5.71;81.71
42771;BME280;28426;42.872;25.314;2024-03-02T02:04:59;96401.31;;;5.84;80.83
42771;BME280;28426;42.872;25.314;2024-03-02T02:07:30;96400.91;;;6.04;80.63
42771;BME280;28426;42.872;25.314;2024-03-02T02:10:02;96399.19;;;6.20;79.40
42771;BME280;28426;42.872;25.314;2024-03-02T02:12:34;96404.41;;;6.36;78.52
42771;BME280;28426;42.872;25.314;2024-03-02T02:15:24;96396.69;;;6.50;77.20
42771;BME280;28426;42.872;25.314;2024-03-02T02:17:57;96387.97;;;6.64;76.79
42771;BME280;28426;42.872;25.314;2024-03-02T02:20:50;96385.53;;;6.78;75.78
42771;BME280;28426;42.872;25.314;2024-03-02T02:23:23;96392.06;;;6.90;75.31
42771;BME280;28426;42.872;25.314;2024-03-02T02:25:53;96387.31;;;7.01;74.88
42771;BME280;28426;42.872;25.314;2024-03-02T02:28:24;96384.44;;;7.11;74.34
42771;BME280;28426;42.872;25.314;2024-03-02T02:30:55;96380.84;;;7.18;73.81
42771;BME280;28426;42.872;25.314;2024-03-02T02:33:28;96395.69;;;7.28;73.29
42771;BME280;28426;42.872;25.314;2024-03-02T02:35:59;96388.63;;;7.35;73.23
42771;BME280;28426;42.872;25.314;2024-03-02T02:38:33;96388.94;;;7.40;72.45
42771;BME280;28426;42.872;25.314;2024-03-02T02:41:06;96390.84;;;7.46;72.20
42771;BME280;28426;42.872;25.314;2024-03-02T02:43:36;96387.66;;;7.51;71.85
42771;BME280;28426;42.872;25.314;2024-03-02T02:46:07;96393.41;;;7.55;71.32
42771;BME280;28426;42.872;25.314;2024-03-02T02:48:38;96386.72;;;7.59;71.00
42771;BME280;28426;42.872;25.314;2024-03-02T02:51:09;96395.31;;;7.61;70.59
42771;BME280;28426;42.872;25.314;2024-03-02T02:53:42;96394.13;;;7.64;70.74
42771;BME280;28426;42.872;25.314;2024-03-02T02:56:13;96390.50;;;7.65;70.24
42771;BME280;28426;42.872;25.314;2024-03-02T02:58:44;96395.59;;;7.66;70.29
42771;BME280;28426;42.872;25.314;2024-03-02T03:01:15;96401.56;;;7.68;70.08
42771;BME280;28426;42.872;25.314;2024-03-02T03:03:46;96389.75;;;7.71;69.83
42771;BME280;28426;42.872;25.314;2024-03-02T03:06:17;96387.91;;;7.71;69.96
42771;BME280;28426;42.872;25.314;2024-03-02T03:08:50;96393.03;;;7.73;69.90
42771;BME280;28426;42.872;25.314;2024-03-02T03:11:21;96389.56;;;7.72;69.65
42771;BME280;28426;42.872;25.314;2024-03-02T03:13:53;96394.69;;;7.74;69.62
42771;BME280;28426;42.872;25.314;2024-03-02T03:16:24;96385.88;;;7.74;69.35
42771;BME280;28426;42.872;25.314;2024-03-02T03:18:55;96388.53;;;7.74;69.49
42771;BME280;28426;42.872;25.314;2024-03-02T03:21:26;96397.53;;;7.72;69.48
42771;BME280;28426;42.872;25.314;2024-03-02T03:23:59;96395.88;;;7.71;69.53
42771;BME280;28426;42.872;25.314;2024-03-02T03:26:30;96395.06;;;7.71;69.30
42771;BME280;28426;42.872;25.314;2024-03-02T03:29:00;96399.72;;;7.69;69.12
42771;BME280;28426;42.872;25.314;2024-03-02T03:31:31;96406.03;;;7.68;69.15
42771;BME280;28426;42.872;25.314;2024-03-02T03:34:01;96407.88;;;7.67;68.86
42771;BME280;28426;42.872;25.314;2024-03-02T03:36:32;96408.88;;;7.66;68.94
42771;BME280;28426;42.872;25.314;2024-03-02T03:39:05;96416.03;;;7.66;69.24
42771;BME280;28426;42.872;25.314;2024-03-02T03:41:36;96413.38;;;7.66;69.23
42771;BME280;28426;42.872;25.314;2024-03-02T03:44:07;96413.56;;;7.64;69.07
42771;BME280;28426;42.872;25.314;2024-03-02T03:46:37;96409.25;;;7.63;69.15
42771;BME280;28426;42.872;25.314;2024-03-02T03:49:08;96403.94;;;7.63;69.26
42771;BME280;28426;42.872;25.314;2024-03-02T03:51:39;96416.38;;;7.63;69.25
42771;BME280;28426;42.872;25.314;2024-03-02T03:54:12;96407.59;;;7.62;69.05
42771;BME280;28426;42.872;25.314;2024-03-02T03:56:43;96405.94;;;7.61;69.03
42771;BME280;28426;42.872;25.314;2024-03-02T03:59:14;96417.41;;;7.62;68.73
42771;BME280;28426;42.872;25.314;2024-03-02T04:01:44;96409.63;;;7.60;68.81
42771;BME280;28426;42.872;25.314;2024-03-02T04:04:12;96414.28;;;7.58;68.78
42771;BME280;28426;42.872;25.314;2024-03-02T04:06:43;96409.00;;;7.58;68.81
42771;BME280;28426;42.872;25.314;2024-03-02T04:09:17;96403.03;;;7.56;68.93
42771;BME280;28426;42.872;25.314;2024-03-02T04:11:47;96383.81;;;7.54;68.71
42771;BME280;28426;42.872;25.314;2024-03-02T04:14:19;96401.03;;;7.58;69.17
42771;BME280;28426;42.872;25.314;2024-03-02T04:16:49;96403.69;;;7.58;69.26
42771;BME280;28426;42.872;25.314;2024-03-02T04:19:20;96397.53;;;7.57;68.79
42771;BME280;28426;42.872;25.314;2024-03-02T04:21:51;96406.34;;;7.58;68.61
42771;BME280;28426;42.872;25.314;2024-03-02T04:24:24;96394.88;;;7.57;68.57
42771;BME280;28426;42.872;25.314;2024-03-02T04:26:55;96394.03;;;7.57;68.29
42771;BME280;28426;42.872;25.314;2024-03-02T04:29:25;96402.84;;;7.57;68.24
42771;BME280;28426;42.872;25.314;2024-03-02T04:31:56;96405.50;;;7.57;68.36
42771;BME280;28426;42.872;25.314;2024-03-02T04:34:26;96408.16;;;7.57;68.07
42771;BME280;28426;42.872;25.314;2024-03-02T04:36:57;96411.81;;;7.56;67.99
42771;BME280;28426;42.872;25.314;2024-03-02T04:39:30;96410.97;;;7.56;68.15
42771;BME280;28426;42.872;25.314;2024-03-02T04:42:01;96408.34;;;7.56;68.20
42771;BME280;28426;42.872;25.314;2024-03-02T04:44:32;96410.34;;;7.54;68.05
42771;BME280;28426;42.872;25.314;2024-03-02T04:47:05;96405.41;;;7.51;68.29
42771;BME280;28426;42.872;25.314;2024-03-02T04:49:36;96411.53;;;7.51;68.16
42771;BME280;28426;42.872;25.314;2024-03-02T04:52:07;96406.16;;;7.44;68.41
42771;BME280;28426;42.872;25.314;2024-03-02T04:54:40;96416.03;;;7.51;68.61
42771;BME280;28426;42.872;25.314;2024-03-02T04:57:23;96431.13;;;7.50;68.37
42771;BME280;28426;42.872;25.314;2024-03-02T04:59:53;96409.06;;;7.50;68.55
42771;BME280;28426;42.872;25.314;2024-03-02T05:02:24;96415.19;;;7.50;68.57
42771;BME280;28426;42.872;25.314;2024-03-02T05:04:54;96420.31;;;7.52;68.30
42771;BME280;28426;42.872;25.314;2024-03-02T05:07:25;96410.72;;;7.51;68.41
42771;BME280;28426;42.872;25.314;2024-03-02T05:09:58;96412.53;;;7.50;68.32
42771;BME280;28426;42.872;25.314;2024-03-02T05:12:29;96418.69;;;7.51;68.38
42771;BME280;28426;42.872;25.314;2024-03-02T05:15:23;96416.84;;;7.51;68.21
42771;BME280;28426;42.872;25.314;2024-03-02T05:17:54;96414.19;;;7.51;68.13
42771;BME280;28426;42.872;25.314;2024-03-02T05:20:26;96414.84;;;7.53;67.78
42771;BME280;28426;42.872;25.314;2024-03-02T05:22:56;96422.63;;;7.55;67.77
42771;BME280;28426;42.872;25.314;2024-03-02T05:25:30;96416.28;;;7.56;67.79
42771;BME280;28426;42.872;25.314;2024-03-02T05:28:03;96414.47;;;7.56;67.87
42771;BME280;28426;42.872;25.314;2024-03-02T05:30:34;96427.56;;;7.58;67.93
42771;BME280;28426;42.872;25.314;2024-03-02T05:33:04;96420.59;;;7.57;67.58
42771;BME280;28426;42.872;25.314;2024-03-02T05:35:35;96426.72;;;7.57;67.46
42771;BME280;28426;42.872;25.314;2024-03-02T05:38:06;96414.91;;;7.60;67.49
42771;BME280;28426;42.872;25.314;2024-03-02T05:40:39;96427.19;;;7.61;67.33
42771;BME280;28426;42.872;25.314;2024-03-02T05:43:10;96421.88;;;7.61;67.62
42771;BME280;28426;42.872;25.314;2024-03-02T05:45:38;96427.00;;;7.63;67.34
42771;BME280;28426;42.872;25.314;2024-03-02T05:48:08;96421.53;;;7.64;67.07
42771;BME280;28426;42.872;25.314;2024-03-02T05:50:39;96421.53;;;7.64;67.16
42771;BME280;28426;42.872;25.314;2024-03-02T05:53:10;96424.81;;;7.66;67.02
42771;BME280;28426;42.872;25.314;2024-03-02T05:55:43;96426.47;;;7.67;67.02
42771;BME280;28426;42.872;25.314;2024-03-02T05:58:14;96435.06;;;7.69;67.07
42771;BME280;28426;42.872;25.314;2024-03-02T06:00:55;96435.06;;;7.69;67.15
42771;BME280;28426;42.872;25.314;2024-03-02T06:03:26;96439.19;;;7.72;67.26
42771;BME280;28426;42.872;25.314;2024-03-02T06:05:56;96439.19;;;7.72;67.14
42771;BME280;28426;42.872;25.314;2024-03-02T06:08:27;96432.69;;;7.75;67.29
42771;BME280;28426;42.872;25.314;2024-03-02T06:11:00;96435.34;;;7.75;67.35
42771;BME280;28426;42.872;25.314;2024-03-02T06:13:31;96436.78;;;7.77;67.33
42771;BME280;28426;42.872;25.314;2024-03-02T06:16:02;96435.81;;;7.78;67.35
42771;BME280;28426;42.872;25.314;2024-03-02T06:18:33;96439.94;;;7.81;67.61
42771;BME280;28426;42.872;25.314;2024-03-02T06:21:04;96439.72;;;7.82;67.43
42771;BME280;28426;42.872;25.314;2024-03-02T06:23:35;96437.72;;;7.84;67.41
42771;BME280;28426;42.872;25.314;2024-03-02T06:26:09;96441.00;;;7.87;67.53
42771;BME280;28426;42.872;25.314;2024-03-02T06:28:39;96440.81;;;7.88;67.59
42771;BME280;28426;42.872;25.314;2024-03-02T06:31:10;96440.19;;;7.86;67.99
42771;BME280;28426;42.872;25.314;2024-03-02T06:33:41;96438.00;;;7.90;68.17
42771;BME280;28426;42.872;25.314;2024-03-02T06:36:11;96428.81;;;7.92;68.44
42771;BME280;28426;42.872;25.314;2024-03-02T06:38:43;96439.28;;;7.94;68.95
42771;BME280;28426;42.872;25.314;2024-03-02T06:41:16;96444.41;;;7.95;69.45
42771;BME280;28426;42.872;25.314;2024-03-02T06:43:47;96440.91;;;7.95;69.55
42771;BME280;28426;42.872;25.314;2024-03-02T06:46:17;96443.56;;;7.95;69.79
42771;BME280;28426;42.872;25.314;2024-03-02T06:48:48;96442.75;;;7.94;70.19
42771;BME280;28426;42.872;25.314;2024-03-02T06:51:19;96450.06;;;7.92;70.05
42771;BME280;28426;42.872;25.314;2024-03-02T06:53:49;96446.41;;;7.93;70.33
42771;BME280;28426;42.872;25.314;2024-03-02T06:56:22;96448.25;;;7.93;70.42
42771;BME280;28426;42.872;25.314;2024-03-02T06:58:53;96446.41;;;7.93;70.64
42771;BME280;28426;42.872;25.314;2024-03-02T07:01:24;96441.31;;;7.92;71.09
42771;BME280;28426;42.872;25.314;2024-03-02T07:03:55;96445.13;;;7.89;71.50
42771;BME280;28426;42.872;25.314;2024-03-02T07:06:26;96449.19;;;7.85;71.43
42771;BME280;28426;42.872;25.314;2024-03-02T07:08:56;96450.34;;;7.82;71.67
42771;BME280;28426;42.872;25.314;2024-03-02T07:11:30;96444.59;;;7.79;71.81
42771;BME280;28426;42.872;25.314;2024-03-02T07:14:00;96441.31;;;7.77;72.27
42771;BME280;28426;42.872;25.314;2024-03-02T07:16:31;96438.00;;;7.75;72.11
42771;BME280;28426;42.872;25.314;2024-03-02T07:19:02;96457.59;;;7.74;72.25
42771;BME280;28426;42.872;25.314;2024-03-02T07:21:32;96468.22;;;7.74;72.91
42771;BME280;28426;42.872;25.314;2024-03-02T07:24:04;96465.75;;;7.72;73.01
42771;BME280;28426;42.872;25.314;2024-03-02T07:26:39;96464.28;;;7.69;72.89
42771;BME280;28426;42.872;25.314;2024-03-02T07:29:13;96472.25;;;7.69;73.20
42771;BME280;28426;42.872;25.314;2024-03-02T07:31:44;96474.28;;;7.67;73.71
42771;BME280;28426;42.872;25.314;2024-03-02T07:34:15;96474.63;;;7.64;73.63
42771;BME280;28426;42.872;25.314;2024-03-02T07:36:46;96481.31;;;7.60;73.85
42771;BME280;28426;42.872;25.314;2024-03-02T07:39:16;96481.47;;;7.58;74.16
42771;BME280;28426;42.872;25.314;2024-03-02T07:41:50;96475.16;;;7.59;74.23
42771;BME280;28426;42.872;25.314;2024-03-02T07:44:21;96481.94;;;7.62;74.21
42771;BME280;28426;42.872;25.314;2024-03-02T07:46:52;96484.41;;;7.64;74.64
42771;BME280;28426;42.872;25.314;2024-03-02T07:49:22;96480.28;;;7.61;74.87
42771;BME280;28426;42.872;25.314;2024-03-02T07:51:53;96474.97;;;7.61;74.58
42771;BME280;28426;42.872;25.314;2024-03-02T07:54:24;96474.97;;;7.61;74.82
42771;BME280;28426;42.872;25.314;2024-03-02T07:56:57;96474.97;;;7.61;75.43
42771;BME280;28426;42.872;25.314;2024-03-02T07:59:28;96476.16;;;7.58;75.93
42771;BME280;28426;42.872;25.314;2024-03-02T08:01:59;96474.69;;;7.56;76.00
42771;BME280;28426;42.872;25.314;2024-03-02T08:04:30;96480.00;;;7.56;75.96
42771;BME280;28426;42.872;25.314;2024-03-02T08:07:00;96476.53;;;7.55;76.05
42771;BME280;28426;42.872;25.314;2024-03-02T08:09:31;96480.19;;;7.54;76.52
42771;BME280;28426;42.872;25.314;2024-03-02T08:12:05;96479.38;;;7.54;75.98
42771;BME280;28426;42.872;25.314;2024-03-02T08:14:36;96476.91;;;7.52;76.22
42771;BME280;28426;42.872;25.314;2024-03-02T08:17:07;96475.06;;;7.53;76.42
42771;BME280;28426;42.872;25.314;2024-03-02T08:19:39;96482.56;;;7.49;76.13
42771;BME280;28426;42.872;25.314;2024-03-02T08:22:10;96486.97;;;7.57;76.19
42771;BME280;28426;42.872;25.314;2024-03-02T08:24:41;96485.78;;;7.44;74.05
42771;BME280;28426;42.872;25.314;2024-03-02T08:27:15;96479.44;;;7.07;72.53
42771;BME280;28426;42.872;25.314;2024-03-02T08:29:45;96485.09;;;6.57;74.18
42771;BME280;28426;42.872;25.314;2024-03-02T08:32:16;96480.03;;;6.15;77.07
42771;BME280;28426;42.872;25.314;2024-03-02T08:34:47;96479.09;;;5.92;84.20
42771;BME280;28426;42.872;25.314;2024-03-02T08:37:18;96474.09;;;5.97;86.36
42771;BME280;28426;42.872;25.314;2024-03-02T08:39:48;96479.56;;;6.04;86.81
42771;BME280;28426;42.872;25.314;2024-03-02T08:42:22;96495.94;;;6.07;86.66
42771;BME280;28426;42.872;25.314;2024-03-02T08:44:53;96502.88;;;6.08;87.40
42771;BME280;28426;42.872;25.314;2024-03-02T08:47:24;96490.81;;;6.06;87.68
42771;BME280;28426;42.872;25.314;2024-03-02T08:49:54;96477.06;;;6.10;91.27
42771;BME280;28426;42.872;25.314;2024-03-02T08:52:29;96477.66;;;6.21;90.44
42771;BME280;28426;42.872;25.314;2024-03-02T08:55:00;96476.16;;;6.26;87.02
42771;BME280;28426;42.872;25.314;2024-03-02T08:57:34;96470.41;;;6.23;86.38
42771;BME280;28426;42.872;25.314;2024-03-02T09:00:09;96484.63;;;6.22;87.01
42771;BME280;28426;42.872;25.314;2024-03-02T09:02:40;96485.63;;;6.21;87.84
42771;BME280;28426;42.872;25.314;2024-03-02T09:05:11;96491.44;;;6.16;86.36
42771;BME280;28426;42.872;25.314;2024-03-02T09:07:41;96485.63;;;6.21;92.00
42771;BME280;28426;42.872;25.314;2024-03-02T09:10:12;96496.81;;;6.31;91.12
42771;BME280;28426;42.872;25.314;2024-03-02T09:12:49;96494.16;;;6.31;87.79
42771;BME280;28426;42.872;25.314;2024-03-02T09:15:20;96488.22;;;6.29;88.37
42771;BME280;28426;42.872;25.314;2024-03-02T09:17:50;96492.69;;;6.28;90.45
42771;BME280;28426;42.872;25.314;2024-03-02T09:20:21;96490.31;;;6.42;91.42
42771;BME280;28426;42.872;25.314;2024-03-02T09:22:52;96496.88;;;6.54;88.10
42771;BME280;28426;42.872;25.314;2024-03-02T09:25:23;96483.63;;;6.54;85.65
42771;BME280;28426;42.872;25.314;2024-03-02T09:27:56;96490.75;;;6.54;86.37
42771;BME280;28426;42.872;25.314;2024-03-02T09:30:27;96502.34;;;6.53;87.34
42771;BME280;28426;42.872;25.314;2024-03-02T09:32:57;96482.78;;;6.54;87.66
42771;BME280;28426;42.872;25.314;2024-03-02T09:35:31;96476.75;;;6.69;90.17
42771;BME280;28426;42.872;25.314;2024-03-02T09:38:02;96469.03;;;6.82;87.25
42771;BME280;28426;42.872;25.314;2024-03-02T09:40:34;96471.31;;;6.85;85.88
42771;BME280;28426;42.872;25.314;2024-03-02T09:43:07;96459.06;;;6.84;86.30
42771;BME280;28426;42.872;25.314;2024-03-02T09:45:38;96457.78;;;6.80;86.34
42771;BME280;28426;42.872;25.314;2024-03-02T09:48:09;96477.91;;;6.89;88.25
42771;BME280;28426;42.872;25.314;2024-03-02T09:50:39;96488.75;;;7.03;86.27
42771;BME280;28426;42.872;25.314;2024-03-02T09:53:11;96468.41;;;7.18;87.22
42771;BME280;28426;42.872;25.314;2024-03-02T09:55:45;96464.34;;;7.31;83.90
42771;BME280;28426;42.872;25.314;2024-03-02T09:58:19;96463.69;;;7.29;81.65
42771;BME280;28426;42.872;25.314;2024-03-02T10:00:50;96455.47;;;7.39;85.94
42771;BME280;28426;42.872;25.314;2024-03-02T10:03:23;96452.53;;;7.49;83.13
42771;BME280;28426;42.872;25.314;2024-03-02T10:05:54;96443.75;;;7.48;80.16
42771;BME280;28426;42.872;25.314;2024-03-02T10:08:25;96474.50;;;7.42;81.48
42771;BME280;28426;42.872;25.314;2024-03-02T10:10:55;96466.63;;;7.34;82.49
42771;BME280;28426;42.872;25.314;2024-03-02T10:13:28;96472.38;;;7.23;82.96
42771;BME280;28426;42.872;25.314;2024-03-02T10:16:11;96466.47;;;7.12;84.32
42771;BME280;28426;42.872;25.314;2024-03-02T10:18:42;96446.63;;;7.23;86.57
42771;BME280;28426;42.872;25.314;2024-03-02T10:21:13;96441.44;;;7.30;83.45
42771;BME280;28426;42.872;25.314;2024-03-02T10:23:45;96442.72;;;7.34;82.24
42771;BME280;28426;42.872;25.314;2024-03-02T10:26:17;96431.19;;;7.27;83.03
42771;BME280;28426;42.872;25.314;2024-03-02T10:28:50;96431.72;;;7.22;84.10
42771;BME280;28426;42.872;25.314;2024-03-02T10:31:27;96435.78;;;7.33;85.58
42771;BME280;28426;42.872;25.314;2024-03-02T10:33:59;96437.63;;;7.48;83.73
42771;BME280;28426;42.872;25.314;2024-03-02T10:36:30;96435.63;;;7.50;81.79
42771;BME280;28426;42.872;25.314;2024-03-02T10:39:02;96438.19;;;7.43;82.91
42771;BME280;28426;42.872;25.314;2024-03-02T10:41:33;96451.69;;;7.33;83.59
42771;BME280;28426;42.872;25.314;2024-03-02T10:44:08;96474.56;;;7.34;86.28
42771;BME280;28426;42.872;25.314;2024-03-02T10:46:39;96457.22;;;7.46;85.21
42771;BME280;28426;42.872;25.314;2024-03-02T10:49:10;96459.13;;;7.53;82.03
42771;BME280;28426;42.872;25.314;2024-03-02T10:51:41;96454.19;;;7.50;82.42
42771;BME280;28426;42.872;25.314;2024-03-02T10:54:12;96466.81;;;7.48;84.58
42771;BME280;28426;42.872;25.314;2024-03-02T10:56:44;96443.13;;;7.61;84.99
42771;BME280;28426;42.872;25.314;2024-03-02T10:59:26;96469.50;;;7.78;82.28
42771;BME280;28426;42.872;25.314;2024-03-02T11:01:59;96462.16;;;7.80;81.10
42771;BME280;28426;42.872;25.314;2024-03-02T11:04:33;96467.19;;;7.75;82.15
42771;BME280;28426;42.872;25.314;2024-03-02T11:07:08;96462.16;;;7.80;85.16
42771;BME280;28426;42.872;25.314;2024-03-02T11:09:42;96455.38;;;7.92;82.67
42771;BME280;28426;42.872;25.314;2024-03-02T11:12:19;96471.59;;;7.97;80.36
42771;BME280;28426;42.872;25.314;2024-03-02T11:14:56;96465.00;;;7.93;81.30
42771;BME280;28426;42.872;25.314;2024-03-02T11:17:27;96471.06;;;8.02;84.69
42771;BME280;28426;42.872;25.314;2024-03-02T11:19:58;96462.59;;;8.14;81.80
42771;BME280;28426;42.872;25.314;2024-03-02T11:22:30;96470.03;;;8.18;79.19
42771;BME280;28426;42.872;25.314;2024-03-02T11:25:02;96456.47;;;8.13;82.19
42771;BME280;28426;42.872;25.314;2024-03-02T11:27:59;96452.13;;;8.27;83.91
42771;BME280;28426;42.872;25.314;2024-03-02T11:30:51;96459.19;;;8.35;79.09
42771;BME280;28426;42.872;25.314;2024-03-02T11:33:23;96464.44;;;8.28;79.29
42771;BME280;28426;42.872;25.314;2024-03-02T11:35:57;96469.19;;;8.18;80.30
42771;BME280;28426;42.872;25.314;2024-03-02T11:38:32;96458.47;;;8.26;82.92
42771;BME280;28426;42.872;25.314;2024-03-02T11:41:06;96451.78;;;8.30;79.61
42771;BME280;28426;42.872;25.314;2024-03-02T11:43:39;96450.06;;;8.22;78.80
42771;BME280;28426;42.872;25.314;2024-03-02T11:46:14;96454.25;;;8.17;80.14
42771;BME280;28426;42.872;25.314;2024-03-02T11:48:46;96469.38;;;8.16;83.69
42771;BME280;28426;42.872;25.314;2024-03-02T11:51:17;96464.97;;;8.23;81.54
42771;BME280;28426;42.872;25.314;2024-03-02T11:53:48;96456.38;;;8.21;79.00
42771;BME280;28426;42.872;25.314;2024-03-02T11:56:20;96456.81;;;8.25;82.52
42771;BME280;28426;42.872;25.314;2024-03-02T11:58:53;96457.53;;;8.34;80.52
42771;BME280;28426;42.872;25.314;2024-03-02T12:01:27;96462.59;;;8.29;77.86
42771;BME280;28426;42.872;25.314;2024-03-02T12:03:59;96455.72;;;8.19;79.17
42771;BME280;28426;42.872;25.314;2024-03-02T12:06:30;96453.91;;;8.05;80.73
42771;BME280;28426;42.872;25.314;2024-03-02T12:09:01;96463.25;;;8.01;83.92
42771;BME280;28426;42.872;25.314;2024-03-02T12:11:32;96470.66;;;8.05;82.71
42771;BME280;28426;42.872;25.314;2024-03-02T12:14:03;96466.28;;;7.97;80.05
42771;BME280;28426;42.872;25.314;2024-03-02T12:16:36;96470.31;;;7.93;85.00
42771;BME280;28426;42.872;25.314;2024-03-02T12:19:07;96473.06;;;8.00;83.94
42771;BME280;28426;42.872;25.314;2024-03-02T12:21:38;96489.84;;;8.01;79.94
42771;BME280;28426;42.872;25.314;2024-03-02T12:24:09;96484.78;;;7.91;79.71
42771;BME280;28426;42.872;25.314;2024-03-02T12:26:40;96482.13;;;7.76;81.10
42771;BME280;28426;42.872;25.314;2024-03-02T12:29:11;96486.53;;;7.68;86.87
42771;BME280;28426;42.872;25.314;2024-03-02T12:31:45;96494.41;;;7.77;85.31
42771;BME280;28426;42.872;25.314;2024-03-02T12:34:17;96478.84;;;7.74;81.53
42771;BME280;28426;42.872;25.314;2024-03-02T12:36:48;96482.59;;;7.64;81.63
42771;BME280;28426;42.872;25.314;2024-03-02T12:39:20;96485.06;;;7.51;83.08
42771;BME280;28426;42.872;25.314;2024-03-02T12:41:51;96487.53;;;7.52;86.42
42771;BME280;28426;42.872;25.314;2024-03-02T12:44:22;96482.31;;;7.59;83.63
42771;BME280;28426;42.872;25.314;2024-03-02T12:46:56;96493.50;;;7.69;84.97
42771;BME280;28426;42.872;25.314;2024-03-02T12:49:28;96490.56;;;7.79;82.42
42771;BME280;28426;42.872;25.314;2024-03-02T12:51:59;96488.44;;;7.75;79.83
42771;BME280;28426;42.872;25.314;2024-03-02T12:54:30;96499.53;;;7.63;80.79
42771;BME280;28426;42.872;25.314;2024-03-02T12:57:02;96503.47;;;7.52;85.64
42771;BME280;28426;42.872;25.314;2024-03-02T12:59:33;96502.72;;;7.58;85.79
42771;BME280;28426;42.872;25.314;2024-03-02T13:02:07;96501.06;;;7.57;81.63
42771;BME280;28426;42.872;25.314;2024-03-02T13:04:38;96513.59;;;7.49;81.18
42771;BME280;28426;42.872;25.314;2024-03-02T13:07:08;96511.72;;;7.34;82.18
42771;BME280;28426;42.872;25.314;2024-03-02T13:09:39;96501.84;;;7.28;86.34
42771;BME280;28426;42.872;25.314;2024-03-02T13:12:10;96504.88;;;7.40;84.48
42771;BME280;28426;42.872;25.314;2024-03-02T13:14:41;96505.63;;;7.33;81.96
42771;BME280;28426;42.872;25.314;2024-03-02T13:17:14;96496.88;;;7.25;82.83
42771;BME280;28426;42.872;25.314;2024-03-02T13:19:52;96486.94;;;7.27;87.21
42771;BME280;28426;42.872;25.314;2024-03-02T13:22:23;96499.13;;;7.36;84.96
42771;BME280;28426;42.872;25.314;2024-03-02T13:24:54;96512.75;;;7.33;81.91